• Join FlightAware (Why Join?)
  • Login
  • US Flag 
03:20PM EDT


 

Airport Tracker/Info


-or-


 

Live Flight TrackerFlight Track Log ✈ SKW6330 ✈ 25-Apr-2013 ✈ KLAX - KFAT

Flight Track Log - Related Links

Times and Time Zones

All times are in EDT time to prevent confusion due to time zone crossing. See the SKW6330 flight status page for this flight to view local times or setup timezone preferences in your user account.

Time Position Orientation Groundspeed Altitude Reporting Facility
EDT Latitude Longitude Course Direction KTS MPH feet Rate Location/Type
07:30PM 34.2116 -118.5475 338° Northwest  Level FlightAware Approximate
07:31PM 34.2830 -118.5832 338° Northwest  Level FlightAware Approximate
07:32PM 34.3559 -118.6217 335° Northwest  Level FlightAware Approximate
07:33PM 34.4281 -118.6619 335° Northwest  Level FlightAware Approximate
07:34PM 34.5025 -118.6953 345° North  Level FlightAware Approximate
07:35PM 34.5760 -118.7315 335° Northwest  Level FlightAware Approximate
07:36PM 34.6480 -118.7726 335° Northwest  Level FlightAware Approximate
07:37PM 34.7211 -118.8105 338° Northwest  Level FlightAware Approximate
07:38PM 34.7947 -118.8473 338° Northwest  Level FlightAware Approximate
07:39PM 34.8703 -118.8759 348° North  Level FlightAware Approximate
07:40PM 34.9431 -118.9121 331° Northwest  Level FlightAware Approximate
07:41PM 35.0202 -118.9343 347° North  Level FlightAware Approximate
07:42PM 35.0978 -118.9554 347° North  Level FlightAware Approximate
07:43PM 35.1754 -118.9766 347° North  Level FlightAware Approximate
07:44PM 35.2523 -119.0017 344° North  Level FlightAware Approximate
07:45PM 35.3287 -119.0287 344° North  Level FlightAware Approximate
07:46PM 35.4051 -119.0556 344° North  Level FlightAware Approximate
07:47PM 35.4815 -119.0827 344° North  Level FlightAware Approximate
07:48PM 35.5602 -119.0737 10° North  Level FlightAware Approximate
07:49PM 35.6385 -119.0563 10° North  Level FlightAware Approximate
07:50PM 35.7172 -119.0428 North  Level FlightAware Approximate
07:51PM 35.7962 -119.0315 North  Level FlightAware Approximate
07:52PM 35.8752 -119.0202 North  Level FlightAware Approximate
07:53PM 35.9518 -119.0342 338° Northwest  Level FlightAware Approximate
07:54PM 36.0256 -119.0705 341° North  Level FlightAware Approximate
07:55PM 36.1008 -119.1027 341° North  Level FlightAware Approximate
07:56PM 36.1750 -119.1379 336° Northwest  Level FlightAware Approximate
07:57PM 36.2476 -119.1782 336° Northwest  Level FlightAware Approximate
07:58PM 36.3204 -119.2167 North  Level FlightAware Approximate
07:59PM 36.3952 -119.2475 338° Northwest  Level FlightAware Approximate
08:00PM 36.4689 -119.2844 338° Northwest  Level FlightAware Approximate
08:01PM 36.5434 -119.3167 North  Level FlightAware Approximate
08:02PM 36.5915 -119.3913 305° West  Level FlightAware Approximate
08:03PM 36.6365 -119.4730 302° West  Level FlightAware Approximate
08:04PM 36.6843 -119.5520 302° West  Level FlightAware Approximate
08:05PM 36.7319 -119.6312 310° West  Level FlightAware Approximate
08:06PM 36.7667 -119.7167 297° West  Level FlightAware Approximate
08:07PM 36.7764 -119.7187 297° West  Level Estimated
08:08PM 36.7764 -119.7187 297° West  Level Estimated
08:09PM 36.7764 -119.7187 297° West  Level Estimated
08:10PM 36.7764 -119.7187 297° West  Level Estimated
08:11PM 36.7764 -119.7187 297° West  Level Estimated
08:12PM 36.7764 -119.7187 297° West  Level Estimated
08:13PM 36.7764 -119.7187 297° West  Level Estimated
08:14PM 36.7764 -119.7187 297° West  Level Estimated
08:15PM 36.7764 -119.7187 297° West  Level Estimated
08:16PM 36.7764 -119.7187 297° West  Level Estimated
08:17PM 36.7764 -119.7187 297° West  Level Estimated
08:18PM 36.7764 -119.7187 297° West  Level Estimated
08:19PM 36.7764 -119.7187 297° West  Level Estimated
08:20PM 36.7764 -119.7187 297° West  Level Estimated